Breeders Fall Classic - LOFT FLY INVENTORY

Station: INVENTORY - T Race

Distance: 10 Miles    

Release: 07-Oct-2019 09:00

Weather Release:    Arrival:

Wind at Release:     Wind at Arrival:

Temp at Release: °    Temp at Arrival: °

Lofts: 111

Birds: 351

Clocked: 350

Good Luck to Everyone!
Drops Pos Breeder Pigeon Name Color Sex Ent Arrival Speed To Win Elg PdColored
1 Fl/Nc Connection - FL 9522-AU19-CV BC 0 1 09:34:04.20 516.584 00:00:00 Yes
2 Bill Hermann - MO 1221-AU19-AA BB H 1 09:39:23.50 446.795 00:05:19 Yes
3 King Brand Syndicate - IA 66507-AU19-ARPU BB H 1 09:45:06.40 390.186 00:11:02 Yes
4 Thunder Birds/Rodriguez Breeding Loft - TX 19069-AU19-WIN H-Town Strike! BB H 1 09:45:16.70 388.707 00:11:13 Yes
5 Andy Owen - GA 1055-AU19-CGA BB H 1 09:46:55.30 375.093 00:12:51 Yes
6 King Conch Loft - ON 0117-CU19-KING BB H 1 09:48:27.40 363.211 00:14:23 Yes
7 Wolf Den & Family Loft - IL 0016-AU19-FAM BB H 1 10:00:50.20 289.299 00:26:46 Yes
8 Crescendo Loft - NM 4723-AU19-VITA BC H 1 10:00:52.30 289.133 00:26:48 Yes
9 Rampage Racing - TX 32494-AU19-AA DC H 1 10:00:59.00 288.603 00:26:55 Yes
10 Kolvenbag & Son - PA 1343-IF19-KOLV BC 0 1 10:01:00.70 288.469 00:26:57 Yes
11 Abilene Loft - OH 1220-AU19-MVS BB H 1 10:02:24.30 282.029 00:28:20 Yes
12 Genesis Syndicate Loft - AZ 0774-AU19-GENS BBPW H 1 10:02:52.00 279.958 00:28:48 Yes
13 Sunshine Loft 2 - SC 9505-AU19-GRPC Ramadan Jr BB H 1 10:02:53.90 279.817 00:28:50 Yes
14 Apple Cup - WA 2502-AU19-YAK BC H 1 10:03:02.70 279.166 00:28:58 Yes
15 Emerson & Donnelly - SC 0230-AU19-MERL BC H 1 10:03:18.00 278.041 00:29:14 Yes
16 Abilene Loft - OH 1235-AU19-MVS BB H 2 10:08:24.10 257.304 00:34:20 Lost
17 Jed Loft - LA 0903-AU19-JED High Class BB H 1 10:17:32.10 226.994 00:43:28 Yes
18 Wingsnwindloft - NY 9120-AU19-BISN " DE 20 " BB H 1 10:17:32.90 226.955 00:43:29 Yes
19 Kai Loft - PA 1012-IF19-KAI DC H 1 10:17:37.30 226.741 00:43:33 Yes
20 Double J Racing Loft - OH 0004-AU19-POUS BB H 1 10:19:25.30 221.602 00:45:21 Yes
21 Cherokee Loft - MI 0506-AU19-CHEK BB H 1 10:24:48.50 207.527 00:50:44 Yes
22 America Loft - IN 0095-AU19-AMER TAIZON BB H 1 10:26:54.70 202.504 00:52:51 Yes
23 Burns Loft - KS 8526-AU19-SWK BB H 1 10:27:18.10 201.600 00:53:14 Yes
24 Greek Connection - SC 1218-AU19-GREK 1153xGR BCWF C 1 10:28:34.20 198.713 00:54:30 Yes
25 Emc Loft - NC 60532-IF19-E BCWF H 1 10:29:12.00 197.309 00:55:08 Yes
26 America Loft - IN 0003-AU19-AMER ALEXIS BBWF H 2 10:48:40.50 161.951 01:14:36 Yes
27 Kolvenbag & Son - PA 1328-IF19-KOLV DC H 2 11:07:39.70 137.864 01:33:36 Yes
28 King Conch Loft - ON 0801-AU19-SMCC BBSP H 2 11:07:41.60 137.830 01:33:37 Yes
29 Milo’s Loft - OK 22930-AU19-ARPU Koop/van loon BB H 1 11:07:44.30 137.782 01:33:40 Yes
30 Bushmaster & Nieves Loft - PR 6805-AU19-ARPU Try Again DC H 1 11:09:26.30 135.972 01:35:22 Yes
31 Jimmy Zheng Loft - MS 0875-AU19-ZHEN BB H 1 11:09:26.80 135.963 01:35:23 Yes
32 Irishsyndicatelofts - AZ 0710-IF19-IRIS BC H 1 11:09:27.80 135.946 01:35:24 Yes
33 Lin's Loft - CT 0007-AU19-LIN CHSP H 1 11:09:28.20 135.939 01:35:24 Yes
34 J & M Partridge Loft - CA 1617-AU19-PASO MELY H 1 11:09:28.30 135.937 01:35:24 Yes
35 Zekes - NY 70879-AU19-ARPU BBSP H 1 11:09:29.20 135.921 01:35:25 Yes
36 Crazy Als Lofts - CO 5534-AU19-CRAZ BB H 1 11:09:29.80 135.911 01:35:26 Yes
37 Silicon Valley Syndicates - CA 19111-AU19-SVS BB H 1 11:09:30.70 135.895 01:35:27 Yes
38 J & M Partridge Loft - CA 1604-AU19-PASO BB H 2 11:09:31.10 135.888 01:35:27 Yes
39 Columba Loft - GA 9284-AU19-LYCH 6173 X 2133 BB H 1 11:09:31.60 135.879 01:35:27 Yes
40 Genesis Syndicate Loft - AZ 0020-AU19-GENS BB H 2 11:09:32.10 135.871 01:35:28 Yes
41 Richard Hobson - DE 1804-IF19-LPC BB H 1 11:09:33.60 135.844 01:35:29 Yes
42 Emc Loft - NC 60550-IF19-E SILV H 2 11:09:34.00 135.837 01:35:30 Yes
43 Salvicon - AZ 1073-IF19-FCON BC H 1 11:09:34.50 135.829 01:35:30 Yes
44 Clear Springs Loft - FL 0073-AU19-WARD RC H 1 11:09:36.00 135.802 01:35:32 Yes
45 S & P Loft - MI 13906-AU19-AA CHOC H 1 11:09:36.90 135.787 01:35:33 Yes
46 Lazy A C Loft - IN 0449-AU19-LAZY BC H 1 11:09:37.40 135.778 01:35:33 Yes
46 Chen Loft - PA 0096-AU19-CHEN 465/203 BC H 1 11:09:37.40 135.778 01:35:33 Yes
48 A P C Loft - TX 19071-AU19-APC BB H 1 11:09:37.90 135.769 01:35:34 Yes
49 M D C Loft - OR 1066-AU19-MDC DC H 1 11:09:38.70 135.755 01:35:35 Yes
50 K T Loft - IN 0432-AU19-KTLF BC H 1 11:09:39.40 135.743 01:35:35 Yes
51 De La O/Sino/Baro - CA 9073-AU19-COOK DC H 1 11:09:39.50 135.741 01:35:35 Yes
52 Do Drop In Loft - NC 0040-IF19-TRC Payday BB H 1 11:09:39.90 135.734 01:35:36 Yes
53 Bruce Daehn - FL 0127-AU19-NWFI DCPW H 1 11:09:40.00 135.733 01:35:36 Yes
54 Emerson & Donnelly - SC 0225-AU19-MERL BB H 2 11:09:40.80 135.719 01:35:37 Yes
55 Kolvenbag & Son - PA 1313-IF19-KOLV Polar Vortex WHTE H 3 11:09:41.80 135.701 01:35:38 Yes
56 Bushmaster & Nieves Loft - PR 6811-AU19-ARPU Kill Duo BCWF H 2 11:09:42.70 135.686 01:35:38 Yes
57 Emerson & Donnelly - SC 0227-AU19-MERL BB H 3 11:09:43.20 135.677 01:35:39 Yes
57 Shi Loft - PA 7033-IF19-ERIE BC H 1 11:09:43.20 135.677 01:35:39 Yes
59 Crazy Als Lofts - CO 5603-AU19-CRAZ BC H 2 11:09:43.70 135.668 01:35:40 Yes
60 Wingsnwindloft - NY 9128-AU19-BISN " BRIDGE BIRD " ANDU H 2 11:09:44.40 135.656 01:35:40 Yes
61 Genesis Syndicate Loft - AZ 0025-AU19-GENS BB H 3 11:09:45.50 135.637 01:35:41 Yes
61 Crazy Als Lofts - CO 5610-AU19-CRAZ BCPD H 3 11:09:45.50 135.637 01:35:41 Yes
63 Q-Ba Family Loft - TX 0840-AU19-SANZ “Meteor-De46 Blood 840 BCWF 0 1 11:09:46.00 135.628 01:35:42 Yes
63 Zekes - NY 70889-AU19-ARPU BB H 2 11:09:46.00 135.628 01:35:42 Yes
65 Iditarod Loft - MT 17257-AU19-AA BB H 1 11:09:51.10 135.539 01:35:47 Yes
66 Elton Dinga - TX 16141-AU19-AA Klaas 1008 x Klaas 303 BB H 1 11:09:54.10 135.487 01:35:50 Yes
67 James Erg - NE 9562-AU19-PV DCPW 0 1 11:09:55.60 135.461 01:35:51 Yes
68 Sheriff & Fabian - PR 3330-IF19-UCPR I Am A Legend BBPW H 1 11:10:00.20 135.381 01:35:56 Yes
69 King Conch Loft - ON 0119-CU19-KING BC H 3 11:10:01.20 135.364 01:35:57 Yes
70 Kui's Loft - NY 3007-AU19-JEDD BB H 1 11:10:06.70 135.268 01:36:03 Yes
71 Zekes - NY 70881-AU19-ARPU BBWF H 3 11:10:24.00 134.969 01:36:20 Yes
72 Tim Byers - OH 9120-AU19-BUCK DC H 1 11:11:09.40 134.191 01:37:05 Yes
73 Cloux Loft - CO 9723-AU19-FH BC H 1 11:11:09.90 134.182 01:37:06 Yes
74 E & E Loft - WA 0501-AU19-SKI BB H 1 11:11:10.40 134.174 01:37:06 Yes
75 David Martinez - NY 0425-IF19-FVC BC H 1 11:11:13.20 134.126 01:37:09 Yes
76 Q-Ba Family Loft - TX 0839-AU19-SANZ “Meteor-De46 Blood 839 BC 0 2 11:11:13.70 134.117 01:37:10 Yes
76 Galaxy - FL 0057-AU19-XXX BC H 1 11:11:13.70 134.117 01:37:10 Yes
78 Marengo Creek Farms - AL 3260-AU19-MCF BB H 1 11:11:15.90 134.080 01:37:12 Yes
79 Genesis Syndicate Loft - AZ 0053-AU19-GENS RC H 4 11:11:17.80 134.048 01:37:14 Yes
80 Zekes - NY 70809-AU19-ARPU H 4 11:11:19.50 134.019 01:37:15 Yes
81 Lazy A C Loft - IN 0457-AU19-LAZY BB H 2 11:11:22.10 133.974 01:37:18 Yes
82 Irishsyndicatelofts - AZ 0500-IF19-IRIS SILV H 2 11:11:25.40 133.918 01:37:21 Yes
83 John Fukumoto - HI 0777-AU19-HAWN BB H 1 11:11:27.00 133.891 01:37:23 Yes
84 Elton Dinga - TX 16131-AU19-AA Hebberecht x Schaerlaecke BC H 2 11:11:28.50 133.866 01:37:24 Yes
85 Dons Loft - SC 0464-IF19-CVR BB H 1 11:11:30.20 133.837 01:37:26 Yes
86 Avelino Loft - CA 0327-AU19-HAN BB H 1 11:11:30.50 133.832 01:37:26 Yes
87 Iditarod Loft - MT 17216-AU19-AA BC H 2 11:11:34.50 133.764 01:37:30 Yes
88 Abilene Loft - OH 1219-AU19-MVS DGZP H 3 11:23:37.80 122.537 01:49:34 Yes
89 Dan & Greg Coury - AZ 0377-AU19-AONE 2206+314 Tickens Toy BC H 1 11:23:39.80 122.509 01:49:36 Yes
90 De La O/Sino/Baro - CA 9012-AU19-COOK DC H 2 11:23:40.50 122.499 01:49:36 Yes
91 Chen Loft - PA 0099-AU19-CHEN 1709/1720 BC H 2 11:23:41.40 122.486 01:49:37 Yes
92 Kastle Loft - KY 1929-AU19-KASL Kiss Me BB H 1 11:23:41.80 122.480 01:49:38 Yes
92 Kolvenbag & Son - PA 1319-IF19-KOLV BB H 4 11:23:41.80 122.480 01:49:38 Yes
94 Youngblood Loft - UT 0424-AU19-UCA Christianson Mercedes BB H 1 11:23:43.30 122.459 01:49:39 Yes
95 Dan & Greg Coury - AZ 13930-AU19-JEDD 1440 526 DC H 2 11:23:43.80 122.452 01:49:40 Yes
96 Country Home Aviary - NC 9126-AU19-CV Green 9126 BBWF C 1 11:23:43.90 122.450 01:49:40 Yes
97 Big Andy And Mike Cortes - FL 6938-AU19-GHC DC H 1 11:23:44.60 122.440 01:49:40 Yes
98 Crazy Als Lofts - CO 5592-AU19-CRAZ BC H 4 11:23:45.10 122.433 01:49:41 Yes
99 Era Loft - NY 0625-AU19-BUF BC H 1 11:23:45.60 122.426 01:49:41 Yes
100 Chen Loft - PA 0666-IF19-LU ALL/112 BB H 3 11:23:46.70 122.411 01:49:42 Yes

There are 404 bird records

Note: These Race Results are unofficial and subject to change until verified by the Race Committee and declared final.